createdAt,value
2022-12-14T00:00:20.154Z,981.51
2022-12-14T00:01:20.078Z,981.49
2022-12-14T00:02:20.137Z,981.44
2022-12-14T00:03:20.192Z,981.49
2022-12-14T00:04:20.511Z,981.44
2022-12-14T00:05:20.100Z,981.49
2022-12-14T00:06:20.099Z,981.38
2022-12-14T00:07:20.082Z,981.50
2022-12-14T00:08:20.082Z,981.43
2022-12-14T00:09:20.114Z,981.42
2022-12-14T00:10:20.091Z,981.44
2022-12-14T00:11:20.109Z,981.36
2022-12-14T00:12:20.112Z,981.44
2022-12-14T00:13:20.083Z,981.48
2022-12-14T00:14:20.084Z,981.41
2022-12-14T00:15:20.095Z,981.48
2022-12-14T00:16:20.172Z,981.41
2022-12-14T00:17:20.118Z,981.48
2022-12-14T00:18:22.621Z,981.43
2022-12-14T00:19:20.116Z,981.42
2022-12-14T00:20:20.111Z,981.52
2022-12-14T00:21:20.121Z,981.48
2022-12-14T00:22:20.092Z,981.39
2022-12-14T00:23:20.089Z,981.37
2022-12-14T00:24:20.096Z,981.40
2022-12-14T00:25:20.148Z,981.36
2022-12-14T00:26:20.123Z,981.33
2022-12-14T00:27:20.117Z,981.34
2022-12-14T00:28:20.140Z,981.34
2022-12-14T00:29:20.148Z,981.30
2022-12-14T00:30:20.230Z,981.39
2022-12-14T00:31:20.247Z,981.33
2022-12-14T00:32:20.193Z,981.35
2022-12-14T00:33:20.178Z,981.41
2022-12-14T00:34:20.212Z,981.42
2022-12-14T00:35:20.267Z,981.44
2022-12-14T00:36:20.248Z,981.40
2022-12-14T00:37:20.267Z,981.34
2022-12-14T00:38:20.312Z,981.34
2022-12-14T00:39:20.293Z,981.40
2022-12-14T00:40:20.302Z,981.34
2022-12-14T00:41:20.318Z,981.37
2022-12-14T00:42:20.306Z,981.35
2022-12-14T00:43:20.330Z,981.33
2022-12-14T00:44:20.322Z,981.27
2022-12-14T00:45:20.365Z,981.23
2022-12-14T00:46:20.418Z,981.24
2022-12-14T00:47:20.371Z,981.33
2022-12-14T00:48:20.399Z,981.16
2022-12-14T00:49:20.406Z,981.16
2022-12-14T00:50:20.410Z,981.14
2022-12-14T00:51:20.427Z,981.19
2022-12-14T00:52:20.432Z,981.26
2022-12-14T00:53:20.440Z,981.27
2022-12-14T00:54:20.448Z,981.24
2022-12-14T00:55:20.484Z,981.18
2022-12-14T00:56:20.517Z,981.17
2022-12-14T00:57:20.511Z,981.13
2022-12-14T00:58:20.505Z,981.15
2022-12-14T00:59:25.678Z,981.13
2022-12-14T01:00:20.530Z,981.07
2022-12-14T01:01:20.649Z,981.20
2022-12-14T01:02:20.577Z,981.18
2022-12-14T01:03:20.575Z,981.18
2022-12-14T01:04:20.573Z,981.19
2022-12-14T01:05:20.542Z,981.23
2022-12-14T01:06:20.530Z,981.16
2022-12-14T01:07:20.582Z,981.22
2022-12-14T01:08:20.506Z,981.22
2022-12-14T01:09:20.530Z,981.17
2022-12-14T01:10:21.386Z,981.21
2022-12-14T01:11:20.545Z,981.20
2022-12-14T01:12:20.512Z,981.17
2022-12-14T01:13:20.532Z,981.23
2022-12-14T01:14:20.533Z,981.24
2022-12-14T01:15:20.531Z,981.23
2022-12-14T01:16:20.566Z,981.29
2022-12-14T01:17:20.567Z,981.24
2022-12-14T01:18:20.528Z,981.22
2022-12-14T01:19:20.530Z,981.13
2022-12-14T01:20:20.521Z,981.15
2022-12-14T01:21:20.519Z,981.15
2022-12-14T01:22:20.510Z,981.05
2022-12-14T01:23:20.571Z,980.97
2022-12-14T01:24:20.548Z,981.04
2022-12-14T01:25:20.535Z,981.01
2022-12-14T01:26:20.536Z,981.05
2022-12-14T01:27:20.574Z,981.08
2022-12-14T01:28:20.539Z,981.09
2022-12-14T01:29:20.536Z,981.05
2022-12-14T01:30:20.563Z,981.05
2022-12-14T01:31:20.587Z,981.06
2022-12-14T01:32:20.555Z,981.04
2022-12-14T01:33:20.555Z,981.06
2022-12-14T01:34:20.527Z,981.02
2022-12-14T01:35:20.524Z,981.04
2022-12-14T01:36:20.525Z,980.96
2022-12-14T01:37:20.568Z,980.91
2022-12-14T01:38:20.537Z,980.91
2022-12-14T01:39:20.569Z,980.75
2022-12-14T01:40:20.536Z,980.71
2022-12-14T01:41:20.523Z,980.75
2022-12-14T01:42:20.539Z,980.61
2022-12-14T01:43:20.563Z,980.70
2022-12-14T01:44:20.597Z,980.75
2022-12-14T01:45:20.567Z,980.67
2022-12-14T01:46:20.623Z,980.66
2022-12-14T01:47:20.558Z,980.59
2022-12-14T01:48:20.531Z,980.60
2022-12-14T01:49:20.546Z,980.59
2022-12-14T01:50:20.564Z,980.61
2022-12-14T01:51:20.606Z,980.57
2022-12-14T01:52:20.563Z,980.58
2022-12-14T01:53:20.547Z,980.67
2022-12-14T01:54:20.568Z,980.59
2022-12-14T01:55:20.577Z,980.67
2022-12-14T01:56:20.567Z,980.55
2022-12-14T01:57:20.554Z,980.65
2022-12-14T01:58:20.556Z,980.62
2022-12-14T01:59:20.559Z,980.58
2022-12-14T02:00:20.578Z,980.56
2022-12-14T02:01:20.725Z,980.58
2022-12-14T02:02:20.695Z,980.53
2022-12-14T02:03:20.595Z,980.50
2022-12-14T02:04:20.558Z,980.45
2022-12-14T02:05:20.586Z,980.50
2022-12-14T02:06:20.586Z,980.45
2022-12-14T02:07:20.571Z,980.38
2022-12-14T02:08:20.569Z,980.38
2022-12-14T02:09:20.577Z,980.28
2022-12-14T02:10:20.593Z,980.36
2022-12-14T02:11:20.610Z,980.29
2022-12-14T02:12:20.572Z,980.24
2022-12-14T02:13:20.564Z,980.19
2022-12-14T02:14:20.561Z,980.18
2022-12-14T02:15:20.566Z,980.09
2022-12-14T02:16:20.701Z,980.12
2022-12-14T02:17:20.577Z,980.12
2022-12-14T02:18:20.569Z,980.08
2022-12-14T02:19:20.589Z,980.08
2022-12-14T02:20:20.560Z,980.04
2022-12-14T02:21:20.621Z,980.07
2022-12-14T02:22:20.564Z,980.01
2022-12-14T02:23:20.558Z,980.00
2022-12-14T02:24:20.570Z,979.98
2022-12-14T02:25:20.564Z,980.01
2022-12-14T02:26:20.601Z,979.95
2022-12-14T02:27:20.568Z,980.00
2022-12-14T02:28:20.565Z,979.96
2022-12-14T02:29:20.588Z,979.92
2022-12-14T02:30:20.592Z,979.91
2022-12-14T02:31:20.682Z,979.97
2022-12-14T02:32:20.593Z,979.94
2022-12-14T02:33:20.596Z,979.94
2022-12-14T02:34:20.603Z,979.89
2022-12-14T02:35:20.576Z,979.94
2022-12-14T02:36:20.609Z,979.96
2022-12-14T02:37:20.590Z,980.01
2022-12-14T02:38:20.583Z,979.97
2022-12-14T02:39:20.595Z,980.00
2022-12-14T02:40:20.594Z,979.98
2022-12-14T02:41:20.596Z,979.97
2022-12-14T02:42:20.601Z,979.98
2022-12-14T02:43:20.600Z,980.00
2022-12-14T02:44:20.597Z,980.00
2022-12-14T02:45:20.600Z,980.04
2022-12-14T02:46:20.642Z,979.98
2022-12-14T02:47:20.594Z,979.90
2022-12-14T02:48:20.588Z,979.79
2022-12-14T02:49:20.588Z,979.81
2022-12-14T02:50:20.605Z,979.76
2022-12-14T02:51:20.581Z,979.75
2022-12-14T02:52:20.604Z,979.71
2022-12-14T02:53:20.593Z,979.74
2022-12-14T02:54:20.619Z,979.71
2022-12-14T02:55:20.591Z,979.68
2022-12-14T02:56:20.623Z,979.66
2022-12-14T02:57:20.633Z,979.62
2022-12-14T02:58:20.623Z,979.69
2022-12-14T02:59:20.594Z,979.66
2022-12-14T03:00:20.607Z,979.57
2022-12-14T03:01:20.677Z,979.49
2022-12-14T03:02:20.738Z,979.56
2022-12-14T03:03:20.589Z,979.50
2022-12-14T03:04:20.616Z,979.49
2022-12-14T03:05:20.594Z,979.48
2022-12-14T03:06:20.612Z,979.46
2022-12-14T03:07:20.618Z,979.49
2022-12-14T03:08:20.658Z,979.49
2022-12-14T03:09:20.621Z,979.46
2022-12-14T03:10:20.601Z,979.44
2022-12-14T03:11:20.609Z,979.40
2022-12-14T03:12:20.633Z,979.42
2022-12-14T03:13:20.630Z,979.41
2022-12-14T03:14:20.866Z,979.38
2022-12-14T03:15:20.619Z,979.35
2022-12-14T03:16:20.649Z,979.35
2022-12-14T03:17:20.651Z,979.33
2022-12-14T03:18:20.630Z,979.31
2022-12-14T03:19:20.630Z,979.32
2022-12-14T03:20:20.620Z,979.25
2022-12-14T03:21:20.621Z,979.19
2022-12-14T03:22:20.651Z,979.18
2022-12-14T03:23:20.614Z,979.18
2022-12-14T03:24:20.625Z,979.19
2022-12-14T03:25:20.660Z,979.13
2022-12-14T03:26:20.640Z,979.11
2022-12-14T03:27:20.630Z,979.14
2022-12-14T03:28:20.633Z,979.04
2022-12-14T03:29:20.627Z,979.13
2022-12-14T03:30:37.192Z,979.01
2022-12-14T03:31:20.659Z,979.06
2022-12-14T03:32:20.695Z,979.05
2022-12-14T03:33:20.628Z,979.16
2022-12-14T03:34:20.645Z,979.15
2022-12-14T03:35:20.633Z,979.10
2022-12-14T03:36:20.640Z,979.12
2022-12-14T03:37:20.649Z,979.01
2022-12-14T03:38:20.851Z,979.03
2022-12-14T03:39:20.654Z,979.09
2022-12-14T03:40:20.659Z,979.06
2022-12-14T03:41:20.649Z,979.02
2022-12-14T03:42:20.670Z,979.02
2022-12-14T03:43:20.652Z,978.96
2022-12-14T03:44:20.663Z,979.01
2022-12-14T03:45:20.651Z,979.05
2022-12-14T03:46:20.653Z,979.01
2022-12-14T03:47:20.666Z,979.11
2022-12-14T03:48:20.668Z,979.07
2022-12-14T03:49:20.637Z,979.04
2022-12-14T03:50:20.663Z,979.05
2022-12-14T03:51:20.644Z,979.10
2022-12-14T03:52:20.635Z,979.05
2022-12-14T03:53:20.647Z,979.07
2022-12-14T03:54:20.653Z,979.03
2022-12-14T03:55:20.658Z,979.00
2022-12-14T03:56:20.651Z,979.05
2022-12-14T03:57:20.649Z,979.08
2022-12-14T03:58:20.661Z,979.03
2022-12-14T03:59:20.674Z,978.98
2022-12-14T04:00:20.667Z,978.97
2022-12-14T04:01:20.725Z,978.99
2022-12-14T04:02:20.812Z,978.91
2022-12-14T04:03:20.720Z,978.89
2022-12-14T04:04:20.667Z,978.91
2022-12-14T04:05:20.646Z,978.87
2022-12-14T04:06:20.672Z,978.86
2022-12-14T04:07:20.669Z,978.84
2022-12-14T04:08:20.665Z,978.87
2022-12-14T04:09:20.668Z,978.86
2022-12-14T04:10:20.694Z,978.81
2022-12-14T04:11:20.654Z,978.91
2022-12-14T04:12:20.658Z,978.85
2022-12-14T04:13:20.663Z,978.86
2022-12-14T04:14:20.664Z,978.90
2022-12-14T04:15:20.668Z,978.85
2022-12-14T04:16:20.674Z,978.87
2022-12-14T04:17:20.666Z,978.89
2022-12-14T04:18:20.678Z,978.92
2022-12-14T04:19:20.682Z,978.87
2022-12-14T04:20:20.678Z,978.95
2022-12-14T04:21:20.672Z,978.87
2022-12-14T04:22:20.720Z,978.92
2022-12-14T04:23:20.747Z,978.94
2022-12-14T04:24:20.667Z,978.91
2022-12-14T04:25:20.690Z,978.91
2022-12-14T04:26:20.670Z,978.98
2022-12-14T04:27:20.665Z,978.96
2022-12-14T04:28:20.683Z,978.98
2022-12-14T04:29:20.705Z,978.96
2022-12-14T04:30:20.690Z,978.96
2022-12-14T04:31:20.705Z,978.96
2022-12-14T04:32:20.704Z,978.98
2022-12-14T04:33:20.723Z,979.00
2022-12-14T04:34:20.694Z,979.11
2022-12-14T04:35:20.712Z,979.15
2022-12-14T04:36:20.692Z,979.08
2022-12-14T04:37:20.695Z,979.03
2022-12-14T04:38:20.711Z,979.14
2022-12-14T04:39:20.682Z,979.02
2022-12-14T04:40:20.697Z,979.10
2022-12-14T04:41:20.670Z,979.09
2022-12-14T04:42:20.719Z,979.08
2022-12-14T04:43:20.741Z,979.12
2022-12-14T04:44:20.697Z,979.07
2022-12-14T04:45:20.694Z,979.14
2022-12-14T04:46:20.723Z,979.14
2022-12-14T04:47:20.690Z,979.22
2022-12-14T04:48:20.717Z,979.14
2022-12-14T04:49:20.709Z,979.16
2022-12-14T04:50:20.697Z,979.06
2022-12-14T04:51:20.708Z,979.10
2022-12-14T04:52:20.688Z,979.13
2022-12-14T04:53:20.708Z,979.10
2022-12-14T04:54:20.708Z,979.05
2022-12-14T04:55:20.725Z,979.13
2022-12-14T04:56:20.697Z,979.12
2022-12-14T04:57:20.691Z,979.12
2022-12-14T04:58:20.691Z,979.03
2022-12-14T04:59:20.720Z,979.10
2022-12-14T05:00:20.705Z,979.02
2022-12-14T05:01:20.854Z,979.07
2022-12-14T05:02:20.812Z,979.04
2022-12-14T05:03:20.711Z,978.99
2022-12-14T05:04:20.712Z,978.99
2022-12-14T05:05:20.708Z,978.97
2022-12-14T05:06:20.696Z,978.95
2022-12-14T05:07:20.729Z,978.92
2022-12-14T05:08:20.706Z,978.91
2022-12-14T05:09:20.738Z,978.88
2022-12-14T05:10:20.735Z,978.93
2022-12-14T05:11:51.882Z,978.84
2022-12-14T05:12:20.720Z,978.85
2022-12-14T05:13:20.736Z,978.90
2022-12-14T05:14:20.707Z,978.88
2022-12-14T05:15:20.706Z,978.86
2022-12-14T05:16:20.744Z,978.82
2022-12-14T05:17:20.709Z,978.79
2022-12-14T05:18:20.689Z,978.81
2022-12-14T05:19:20.726Z,978.80
2022-12-14T05:20:20.704Z,978.79
2022-12-14T05:21:20.759Z,978.75
2022-12-14T05:22:20.729Z,978.78
2022-12-14T05:23:20.740Z,978.80
2022-12-14T05:24:20.703Z,978.83
2022-12-14T05:25:20.738Z,978.83
2022-12-14T05:26:20.737Z,978.73
2022-12-14T05:27:20.735Z,978.75
2022-12-14T05:28:20.735Z,978.75
2022-12-14T05:29:20.785Z,978.68
2022-12-14T05:30:20.849Z,978.70
2022-12-14T05:31:20.722Z,978.65
2022-12-14T05:32:20.731Z,978.64
2022-12-14T05:33:20.735Z,978.71
2022-12-14T05:34:23.454Z,978.60
2022-12-14T05:35:20.766Z,978.66
2022-12-14T05:36:20.820Z,978.56
2022-12-14T05:37:20.818Z,978.53
2022-12-14T05:38:20.779Z,978.51
2022-12-14T05:39:20.781Z,978.46
2022-12-14T05:40:20.824Z,978.46
2022-12-14T05:41:20.832Z,978.46
2022-12-14T05:42:20.819Z,978.39
2022-12-14T05:43:20.856Z,978.53
2022-12-14T05:44:20.854Z,978.46
2022-12-14T05:45:20.889Z,978.48
2022-12-14T05:46:21.034Z,978.35
2022-12-14T05:47:20.890Z,978.43
2022-12-14T05:48:20.902Z,978.42
2022-12-14T05:49:20.929Z,978.39
2022-12-14T05:50:20.923Z,978.34
2022-12-14T05:51:20.972Z,978.39
2022-12-14T05:52:20.958Z,978.39
2022-12-14T05:53:20.955Z,978.30
2022-12-14T05:54:20.968Z,978.31
2022-12-14T05:55:20.998Z,978.25
2022-12-14T05:56:21.054Z,978.22
2022-12-14T05:57:21.011Z,978.14
2022-12-14T05:58:21.013Z,978.17
2022-12-14T05:59:21.062Z,978.11
2022-12-14T06:00:21.047Z,978.14
2022-12-14T06:01:21.096Z,978.12
2022-12-14T06:02:21.230Z,978.08
2022-12-14T06:03:21.095Z,978.06
2022-12-14T06:04:21.193Z,978.13
2022-12-14T06:05:21.119Z,978.09
2022-12-14T06:06:21.126Z,978.09
2022-12-14T06:07:26.025Z,978.00
2022-12-14T06:08:21.128Z,978.04
2022-12-14T06:09:21.113Z,978.06
2022-12-14T06:10:21.146Z,977.99
2022-12-14T06:11:21.130Z,977.93
2022-12-14T06:12:21.165Z,977.97
2022-12-14T06:13:21.115Z,977.84
2022-12-14T06:14:21.124Z,977.85
2022-12-14T06:15:21.163Z,977.83
2022-12-14T06:16:21.265Z,977.87
2022-12-14T06:17:21.129Z,977.77
2022-12-14T06:18:21.140Z,977.75
2022-12-14T06:19:21.146Z,977.76
2022-12-14T06:20:21.148Z,977.77
2022-12-14T06:21:21.150Z,977.75
2022-12-14T06:22:21.153Z,977.80
2022-12-14T06:23:21.143Z,977.74
2022-12-14T06:24:21.137Z,977.71
2022-12-14T06:25:21.163Z,977.66
2022-12-14T06:26:21.185Z,977.65
2022-12-14T06:27:21.161Z,977.65
2022-12-14T06:28:21.136Z,977.60
2022-12-14T06:29:21.135Z,977.65
2022-12-14T06:30:21.154Z,977.61
2022-12-14T06:31:21.170Z,977.60
2022-12-14T06:32:21.134Z,977.61
2022-12-14T06:33:21.153Z,977.64
2022-12-14T06:34:26.360Z,977.59
2022-12-14T06:35:21.176Z,977.58
2022-12-14T06:36:21.142Z,977.64
2022-12-14T06:37:21.180Z,977.61
2022-12-14T06:38:21.148Z,977.53
2022-12-14T06:39:21.144Z,977.51
2022-12-14T06:40:21.190Z,977.53
2022-12-14T06:41:21.216Z,977.52
2022-12-14T06:42:21.146Z,977.59
2022-12-14T06:43:21.149Z,977.45
2022-12-14T06:44:21.155Z,977.46
2022-12-14T06:45:21.186Z,977.47
2022-12-14T06:46:21.278Z,977.51
2022-12-14T06:47:21.145Z,977.41
2022-12-14T06:48:21.202Z,977.39
2022-12-14T06:49:21.149Z,977.47
2022-12-14T06:50:21.166Z,977.39
2022-12-14T06:51:21.164Z,977.43
2022-12-14T06:52:26.419Z,977.51
2022-12-14T06:53:21.145Z,977.42
2022-12-14T06:54:21.172Z,977.44
2022-12-14T06:55:21.174Z,977.46
2022-12-14T06:56:21.187Z,977.47
2022-12-14T06:57:21.206Z,977.48
2022-12-14T06:58:21.170Z,977.43
2022-12-14T06:59:21.173Z,977.40
2022-12-14T07:00:21.156Z,977.43
2022-12-14T07:01:21.279Z,977.41
2022-12-14T07:02:21.382Z,977.44
2022-12-14T07:03:21.200Z,977.52
2022-12-14T07:04:21.392Z,977.49
2022-12-14T07:05:21.184Z,977.39
2022-12-14T07:06:21.176Z,977.48
2022-12-14T07:07:21.197Z,977.45
2022-12-14T07:08:21.178Z,977.49
2022-12-14T07:09:21.189Z,977.47
2022-12-14T07:10:21.216Z,977.52
2022-12-14T07:11:21.182Z,977.49
2022-12-14T07:12:21.213Z,977.54
2022-12-14T07:13:21.187Z,977.42
2022-12-14T07:14:21.157Z,977.51
2022-12-14T07:15:21.179Z,977.44
2022-12-14T07:16:21.299Z,977.35
2022-12-14T07:17:21.225Z,977.38
2022-12-14T07:18:21.166Z,977.34
2022-12-14T07:19:21.180Z,977.31
2022-12-14T07:20:21.169Z,977.24
2022-12-14T07:21:21.191Z,977.31
2022-12-14T07:22:21.212Z,977.37
2022-12-14T07:23:24.754Z,977.36
2022-12-14T07:24:21.255Z,977.33
2022-12-14T07:25:21.185Z,977.27
2022-12-14T07:26:21.196Z,977.26
2022-12-14T07:27:21.204Z,977.27
2022-12-14T07:28:21.202Z,977.21
2022-12-14T07:29:21.190Z,977.34
2022-12-14T07:30:21.191Z,977.34
2022-12-14T07:31:21.263Z,977.31
2022-12-14T07:32:21.200Z,977.31
2022-12-14T07:33:21.214Z,977.39
2022-12-14T07:34:21.220Z,977.30
2022-12-14T07:35:21.197Z,977.43
2022-12-14T07:36:21.260Z,977.42
2022-12-14T07:37:21.227Z,977.43
2022-12-14T07:38:21.183Z,977.41
2022-12-14T07:39:21.191Z,977.43
2022-12-14T07:40:21.206Z,977.49
2022-12-14T07:41:22.982Z,977.55
2022-12-14T07:42:21.201Z,977.58
2022-12-14T07:43:21.198Z,977.55
2022-12-14T07:44:21.183Z,977.56
2022-12-14T07:45:21.197Z,977.65
2022-12-14T07:46:21.375Z,977.70
2022-12-14T07:47:21.231Z,977.63
2022-12-14T07:48:21.244Z,977.67
2022-12-14T07:49:21.195Z,977.70
2022-12-14T07:50:21.215Z,977.67
2022-12-14T07:51:21.225Z,977.76
2022-12-14T07:52:21.200Z,977.83
2022-12-14T07:53:21.225Z,977.78
2022-12-14T07:54:21.202Z,977.80
2022-12-14T07:55:21.205Z,977.77
2022-12-14T07:56:21.220Z,977.78
2022-12-14T07:57:21.208Z,977.76
2022-12-14T07:58:21.248Z,977.70
2022-12-14T07:59:21.242Z,977.66
2022-12-14T08:00:21.242Z,977.72
2022-12-14T08:01:21.408Z,977.70
2022-12-14T08:02:21.282Z,977.76
2022-12-14T08:03:21.226Z,977.76
2022-12-14T08:04:21.284Z,977.79
2022-12-14T08:05:21.226Z,977.84
2022-12-14T08:06:21.229Z,977.85
2022-12-14T08:07:21.215Z,977.86
2022-12-14T08:08:21.245Z,977.80
2022-12-14T08:09:21.224Z,977.82
2022-12-14T08:10:21.241Z,977.90
2022-12-14T08:11:21.227Z,977.84
2022-12-14T08:12:21.232Z,977.90
2022-12-14T08:13:21.220Z,977.87
2022-12-14T08:14:21.290Z,977.92
2022-12-14T08:15:21.221Z,977.98
2022-12-14T08:16:21.338Z,978.03
2022-12-14T08:17:21.233Z,977.91
2022-12-14T08:18:21.219Z,977.97
2022-12-14T08:19:21.249Z,977.93
2022-12-14T08:20:21.220Z,977.92
2022-12-14T08:21:21.255Z,977.92
2022-12-14T08:22:21.220Z,977.86
2022-12-14T08:23:21.223Z,977.95
2022-12-14T08:24:21.274Z,977.85
2022-12-14T08:25:21.235Z,977.87
2022-12-14T08:26:21.258Z,977.87
2022-12-14T08:27:21.264Z,977.80
2022-12-14T08:28:21.260Z,977.84
2022-12-14T08:29:21.247Z,977.89
2022-12-14T08:30:21.252Z,977.84
2022-12-14T08:31:21.310Z,977.86
2022-12-14T08:32:21.255Z,977.81
2022-12-14T08:33:21.262Z,977.83
2022-12-14T08:34:21.265Z,977.83
2022-12-14T08:35:21.313Z,977.87
2022-12-14T08:36:21.270Z,977.77
2022-12-14T08:37:21.278Z,977.84
2022-12-14T08:38:21.291Z,977.83
2022-12-14T08:39:21.303Z,977.80
2022-12-14T08:40:21.315Z,977.78
2022-12-14T08:41:21.332Z,977.79
2022-12-14T08:42:21.350Z,977.73
2022-12-14T08:43:24.923Z,977.69
2022-12-14T08:44:21.399Z,977.79
2022-12-14T08:45:21.380Z,977.72
2022-12-14T08:46:21.418Z,977.71
2022-12-14T08:47:21.350Z,977.69
2022-12-14T08:48:21.354Z,977.67
2022-12-14T08:49:21.382Z,977.61
2022-12-14T08:50:21.381Z,977.68
2022-12-14T08:51:21.358Z,977.74
2022-12-14T08:52:21.369Z,977.66
2022-12-14T08:53:21.365Z,977.58
2022-12-14T08:54:21.366Z,977.65
2022-12-14T08:55:27.552Z,977.65
2022-12-14T08:56:21.493Z,977.67
2022-12-14T08:57:21.354Z,977.71
2022-12-14T08:58:21.349Z,977.70
2022-12-14T08:59:51.924Z,977.79
2022-12-14T09:00:21.456Z,977.78
2022-12-14T09:01:22.983Z,977.83
2022-12-14T09:02:21.520Z,977.83
2022-12-14T09:03:21.449Z,977.81
2022-12-14T09:04:21.379Z,977.81
2022-12-14T09:05:21.378Z,977.89
2022-12-14T09:06:21.575Z,977.88
2022-12-14T09:07:21.346Z,977.88
2022-12-14T09:08:21.367Z,977.87
2022-12-14T09:09:21.360Z,977.85
2022-12-14T09:10:21.415Z,977.88
2022-12-14T09:11:21.376Z,977.92
2022-12-14T09:12:21.537Z,977.91
2022-12-14T09:13:21.385Z,977.97
2022-12-14T09:14:21.384Z,977.93
2022-12-14T09:15:21.393Z,977.99
2022-12-14T09:16:21.407Z,978.01
2022-12-14T09:17:21.541Z,977.93
2022-12-14T09:18:21.462Z,977.97
2022-12-14T09:19:21.404Z,978.02
2022-12-14T09:20:21.373Z,977.94
2022-12-14T09:21:21.374Z,978.01
2022-12-14T09:22:21.803Z,977.95
2022-12-14T09:23:21.397Z,978.02
2022-12-14T09:24:21.403Z,978.07
2022-12-14T09:25:21.375Z,978.06
2022-12-14T09:26:21.400Z,978.01
2022-12-14T09:27:21.401Z,978.02
2022-12-14T09:28:21.413Z,977.97
2022-12-14T09:29:21.394Z,977.97
2022-12-14T09:30:26.365Z,977.99
2022-12-14T09:31:21.447Z,977.95
2022-12-14T09:32:21.383Z,977.95
2022-12-14T09:33:21.404Z,977.93
2022-12-14T09:34:21.391Z,977.97
2022-12-14T09:35:21.405Z,977.96
2022-12-14T09:36:21.411Z,977.97
2022-12-14T09:37:21.395Z,978.02
2022-12-14T09:38:21.556Z,977.95
2022-12-14T09:39:21.632Z,978.05
2022-12-14T09:40:21.399Z,977.97
2022-12-14T09:41:21.441Z,977.95
2022-12-14T09:42:21.396Z,977.98
2022-12-14T09:43:21.387Z,977.86
2022-12-14T09:44:21.525Z,977.89
2022-12-14T09:45:21.399Z,977.93
2022-12-14T09:46:21.418Z,977.78
2022-12-14T09:47:21.432Z,977.86
2022-12-14T09:48:21.406Z,977.82
2022-12-14T09:49:21.553Z,977.80
2022-12-14T09:50:21.445Z,977.78
2022-12-14T09:51:21.432Z,977.82
2022-12-14T09:52:21.415Z,977.83
2022-12-14T09:53:21.399Z,977.85
2022-12-14T09:54:21.457Z,977.78
2022-12-14T09:55:21.410Z,977.72
2022-12-14T09:56:21.404Z,977.70
2022-12-14T09:57:21.403Z,977.68
2022-12-14T09:58:21.412Z,977.66
2022-12-14T09:59:21.527Z,977.74
2022-12-14T10:00:21.453Z,977.70
2022-12-14T10:01:21.521Z,977.69
2022-12-14T10:02:30.892Z,977.67
2022-12-14T10:03:21.631Z,977.66
2022-12-14T10:04:21.457Z,977.71
2022-12-14T10:05:21.428Z,977.64
2022-12-14T10:06:21.433Z,977.69
2022-12-14T10:07:21.469Z,977.72
2022-12-14T10:08:21.453Z,977.74
2022-12-14T10:09:21.427Z,977.69
2022-12-14T10:10:21.434Z,977.71
2022-12-14T10:11:21.433Z,977.69
2022-12-14T10:12:21.424Z,977.69
2022-12-14T10:13:21.475Z,977.65
2022-12-14T10:14:21.466Z,977.65
2022-12-14T10:15:21.420Z,977.67
2022-12-14T10:16:21.483Z,977.70
2022-12-14T10:17:21.464Z,977.68
2022-12-14T10:18:56.956Z,977.65
2022-12-14T10:19:21.556Z,977.76
2022-12-14T10:20:21.452Z,977.78
2022-12-14T10:21:21.433Z,977.72
2022-12-14T10:22:21.423Z,977.76
2022-12-14T10:23:23.223Z,977.79
2022-12-14T10:24:21.440Z,977.76
2022-12-14T10:25:21.435Z,977.85
2022-12-14T10:26:21.453Z,977.77
2022-12-14T10:27:21.435Z,977.76
2022-12-14T10:28:21.427Z,977.78
2022-12-14T10:29:21.441Z,977.70
2022-12-14T10:30:21.563Z,977.73
2022-12-14T10:31:21.471Z,977.62
2022-12-14T10:32:21.427Z,977.66
2022-12-14T10:33:21.443Z,977.62
2022-12-14T10:34:21.435Z,977.53
2022-12-14T10:35:21.495Z,977.55
2022-12-14T10:36:21.455Z,977.58
2022-12-14T10:37:21.437Z,977.53
2022-12-14T10:38:21.463Z,977.50
2022-12-14T10:39:21.461Z,977.49
2022-12-14T10:40:32.618Z,977.55
2022-12-14T10:41:21.431Z,977.49
2022-12-14T10:42:21.449Z,977.47
2022-12-14T10:43:21.517Z,977.49
2022-12-14T10:44:21.490Z,977.47
2022-12-14T10:45:41.125Z,977.48
2022-12-14T10:46:21.518Z,977.41
2022-12-14T10:47:21.464Z,977.41
2022-12-14T10:48:21.447Z,977.40
2022-12-14T10:49:21.459Z,977.38
2022-12-14T10:50:21.444Z,977.37
2022-12-14T10:51:21.451Z,977.38
2022-12-14T10:52:21.491Z,977.42
2022-12-14T10:53:21.467Z,977.48
2022-12-14T10:54:21.454Z,977.47
2022-12-14T10:55:21.443Z,977.53
2022-12-14T10:56:21.518Z,977.43
2022-12-14T10:57:21.460Z,977.49
2022-12-14T10:58:21.494Z,977.45
2022-12-14T10:59:21.469Z,977.39
2022-12-14T11:00:23.421Z,977.44
2022-12-14T11:01:21.600Z,977.38
2022-12-14T11:02:21.835Z,977.37
2022-12-14T11:03:21.522Z,977.39
2022-12-14T11:04:21.468Z,977.35
2022-12-14T11:05:21.463Z,977.28
2022-12-14T11:06:21.490Z,977.27
2022-12-14T11:07:21.477Z,977.33
2022-12-14T11:08:21.479Z,977.33
2022-12-14T11:09:21.490Z,977.34
2022-12-14T11:10:21.479Z,977.32
2022-12-14T11:11:21.539Z,977.31
2022-12-14T11:12:21.610Z,977.27
2022-12-14T11:13:21.460Z,977.33
2022-12-14T11:14:21.479Z,977.35
2022-12-14T11:15:21.518Z,977.32
2022-12-14T11:16:21.499Z,977.32
2022-12-14T11:17:21.637Z,977.30
2022-12-14T11:18:21.539Z,977.33
2022-12-14T11:19:21.487Z,977.36
2022-12-14T11:20:21.470Z,977.35
2022-12-14T11:21:21.486Z,977.33
2022-12-14T11:22:22.688Z,977.34
2022-12-14T11:23:21.454Z,977.36
2022-12-14T11:24:21.556Z,977.20
2022-12-14T11:25:21.550Z,977.26
2022-12-14T11:26:21.508Z,977.24
2022-12-14T11:27:21.482Z,977.22
2022-12-14T11:28:21.590Z,977.15
2022-12-14T11:29:21.504Z,977.07
2022-12-14T11:30:21.563Z,977.09
2022-12-14T11:31:21.540Z,977.12
2022-12-14T11:32:21.503Z,977.09
2022-12-14T11:33:21.492Z,977.15
2022-12-14T11:34:22.331Z,977.05
2022-12-14T11:35:21.506Z,977.10
2022-12-14T11:36:21.505Z,977.11
2022-12-14T11:37:21.505Z,977.05
2022-12-14T11:38:21.545Z,977.03
2022-12-14T11:39:21.536Z,977.05
2022-12-14T11:40:21.577Z,977.07
2022-12-14T11:41:21.549Z,977.07
2022-12-14T11:42:21.571Z,977.05
2022-12-14T11:43:21.576Z,977.05
2022-12-14T11:44:21.601Z,977.01
2022-12-14T11:45:21.602Z,977.07
2022-12-14T11:46:21.663Z,977.05
2022-12-14T11:47:21.628Z,977.06
2022-12-14T11:48:21.618Z,977.06
2022-12-14T11:49:21.653Z,977.02
2022-12-14T11:50:21.668Z,977.05
2022-12-14T11:51:21.665Z,977.07
2022-12-14T11:52:21.701Z,977.03
2022-12-14T11:53:21.686Z,976.97
2022-12-14T11:54:21.725Z,977.08
2022-12-14T11:55:26.687Z,977.01
2022-12-14T11:56:21.725Z,977.03
2022-12-14T11:57:21.746Z,977.01
2022-12-14T11:58:21.728Z,977.02
2022-12-14T11:59:21.736Z,977.05
2022-12-14T12:00:21.711Z,977.07
2022-12-14T12:01:21.819Z,977.05
2022-12-14T12:02:21.769Z,977.11
2022-12-14T12:03:21.872Z,977.12
2022-12-14T12:04:21.754Z,977.10
2022-12-14T12:05:21.732Z,977.18
2022-12-14T12:06:21.736Z,977.21
2022-12-14T12:07:21.728Z,977.16
2022-12-14T12:08:21.723Z,977.16
2022-12-14T12:09:21.789Z,977.18
2022-12-14T12:10:21.752Z,977.15
2022-12-14T12:11:21.749Z,977.14
2022-12-14T12:12:21.733Z,977.15
2022-12-14T12:13:21.759Z,977.24
2022-12-14T12:14:21.766Z,977.23
2022-12-14T12:15:21.740Z,977.18
2022-12-14T12:16:21.953Z,977.22
2022-12-14T12:17:21.782Z,977.27
2022-12-14T12:18:21.722Z,977.16
2022-12-14T12:19:21.747Z,977.14
2022-12-14T12:20:21.757Z,977.15
2022-12-14T12:21:21.744Z,977.16
2022-12-14T12:22:21.810Z,977.19
2022-12-14T12:23:21.759Z,977.22
2022-12-14T12:24:21.743Z,977.22
2022-12-14T12:25:28.444Z,977.28
2022-12-14T12:26:21.742Z,977.37
2022-12-14T12:27:21.801Z,977.40
2022-12-14T12:28:21.746Z,977.34